Terminal Aerodrome Forecast
Issued by NWS Twin Cities, MN

Home | Current Version | Previous Version | Graphics & Text | Print | Product List | Glossary On
Versions: 1 2 3 4 5 6 7 8 9 10 11 12 13 14 15 16 17
000
FTUS43 KMPX 021120
TAFSTC
TAF
KSTC 021120Z 0212/0312 VRB03KT 4SM BR FEW250
     FM021300 19007KT P6SM SCT250
     FM021900 19012KT P6SM SCT200
     FM030100 15004KT P6SM SCT150
     FM031000 16005KT P6SM BKN080=

USA.gov is the U.S. government's official web portal to all federal, state and local government web resources and services.